createdAt,value
2018-02-18T00:00:27.622Z,0.3
2018-02-18T00:01:49.995Z,0.2
2018-02-18T00:03:12.326Z,0.3
2018-02-18T00:04:34.682Z,0.3
2018-02-18T00:06:07.185Z,0.2
2018-02-18T00:07:27.015Z,0.1
2018-02-18T00:08:46.862Z,0.1
2018-02-18T00:10:06.670Z,0.1
2018-02-18T00:11:26.468Z,0.2
2018-02-18T00:12:53.927Z,0.2
2018-02-18T00:14:13.726Z,0.2
2018-02-18T00:15:33.533Z,0.2
2018-02-18T00:16:58.416Z,0.3
2018-02-18T00:18:23.284Z,0.3
2018-02-18T00:19:45.636Z,0.3
2018-02-18T00:21:10.578Z,0.3
2018-02-18T00:22:32.939Z,0.2
2018-02-18T00:23:55.305Z,0.2
2018-02-18T00:25:15.164Z,0.2
2018-02-18T00:26:37.529Z,0.2
2018-02-18T00:27:59.906Z,0.2
2018-02-18T00:29:19.799Z,0.2
2018-02-18T00:30:44.666Z,0.2
2018-02-18T00:32:09.556Z,0.2
2018-02-18T00:33:29.420Z,0.2
2018-02-18T00:34:54.316Z,0.3
2018-02-18T00:36:14.162Z,0.3
2018-02-18T00:37:36.494Z,0.3
2018-02-18T00:38:58.869Z,0.3
2018-02-18T00:40:21.209Z,0.3
2018-02-18T00:41:41.050Z,0.3
2018-02-18T00:43:16.037Z,0.2
2018-02-18T00:44:48.599Z,0.2
2018-02-18T00:46:13.465Z,0.2
2018-02-18T00:47:33.325Z,0.2
2018-02-18T00:48:53.115Z,0.2
2018-02-18T00:50:15.477Z,0.2
2018-02-18T00:51:35.351Z,0.2
2018-02-18T00:52:55.214Z,0.2
2018-02-18T00:54:17.565Z,0.2
2018-02-18T00:55:37.374Z,0.2
2018-02-18T00:56:57.225Z,0.2
2018-02-18T00:58:17.017Z,0.2
2018-02-18T00:59:36.819Z,0.2
2018-02-18T01:00:59.154Z,0.3
2018-02-18T01:02:24.012Z,0.2
2018-02-18T01:03:43.830Z,0.3
2018-02-18T01:05:08.720Z,0.2
2018-02-18T01:06:28.570Z,0.2
2018-02-18T01:07:48.386Z,0.2
2018-02-18T01:09:08.197Z,0.2
2018-02-18T01:10:27.984Z,0.2
2018-02-18T01:11:47.824Z,0.2
2018-02-18T01:13:10.214Z,0.1
2018-02-18T01:14:32.565Z,0.1
2018-02-18T01:15:54.964Z,0.1
2018-02-18T01:17:14.805Z,0.1
2018-02-18T01:18:37.139Z,0.1
2018-02-18T01:20:02.006Z,0.2
2018-02-18T01:21:21.817Z,0.2
2018-02-18T01:22:41.616Z,0.2
2018-02-18T01:24:09.034Z,0.3
2018-02-18T01:25:33.894Z,0.3
2018-02-18T01:26:53.702Z,0.3
2018-02-18T01:28:18.578Z,0.3
2018-02-18T01:29:43.462Z,0.3
2018-02-18T01:31:08.387Z,0.2
2018-02-18T01:32:30.781Z,0.2
2018-02-18T01:33:58.230Z,0.2
2018-02-18T01:35:20.645Z,0.2
2018-02-18T01:36:48.095Z,0.2
2018-02-18T01:38:10.492Z,0.2
2018-02-18T01:39:37.937Z,0.1
2018-02-18T01:41:05.390Z,0.2
2018-02-18T01:42:32.785Z,0.2
2018-02-18T01:44:00.224Z,0.2
2018-02-18T01:45:25.116Z,0.2
2018-02-18T01:46:50.065Z,0.1
2018-02-18T01:48:12.427Z,0.1
2018-02-18T01:49:42.354Z,0.1
2018-02-18T01:51:07.225Z,0.1
2018-02-18T01:52:34.681Z,0.1
2018-02-18T01:53:54.487Z,0.1
2018-02-18T01:55:14.328Z,0.1
2018-02-18T01:56:41.790Z,0.1
2018-02-18T01:58:04.135Z,0.1
2018-02-18T01:59:23.964Z,0.1
2018-02-18T02:00:43.812Z,0.1
2018-02-18T02:02:03.624Z,0.2
2018-02-18T02:03:25.955Z,0.1
2018-02-18T02:04:45.756Z,0.1
2018-02-18T02:06:05.594Z,0.1
2018-02-18T02:07:25.429Z,0.1
2018-02-18T02:08:45.288Z,0.1
2018-02-18T02:10:07.625Z,0
2018-02-18T02:11:30.014Z,0
2018-02-18T02:12:49.877Z,0
2018-02-18T02:14:14.789Z,0
2018-02-18T02:15:34.610Z,0
2018-02-18T02:16:56.992Z,0
2018-02-18T02:18:21.866Z,0.1
2018-02-18T02:19:41.664Z,0
2018-02-18T02:21:01.493Z,0.1
2018-02-18T02:22:21.347Z,0.1
2018-02-18T02:23:46.219Z,0.1
2018-02-18T02:25:06.027Z,0.1
2018-02-18T02:26:25.854Z,0.1
2018-02-18T02:27:50.752Z,0.1
2018-02-18T02:29:13.097Z,0.1
2018-02-18T02:30:32.910Z,0.1
2018-02-18T02:31:52.741Z,0.1
2018-02-18T02:33:12.609Z,0.1
2018-02-18T02:34:35.009Z,0.1
2018-02-18T02:35:57.370Z,0.1
2018-02-18T02:37:32.366Z,0.2
2018-02-18T02:38:52.187Z,0.2
2018-02-18T02:40:14.515Z,0.2
2018-02-18T02:41:36.889Z,0.2
2018-02-18T02:42:56.711Z,0.1
2018-02-18T02:44:16.575Z,0.2
2018-02-18T02:45:38.911Z,0.2
2018-02-18T02:46:58.770Z,0.2
2018-02-18T02:48:26.166Z,0.2
2018-02-18T02:49:48.504Z,0.2
2018-02-18T02:51:08.341Z,0.2
2018-02-18T02:52:28.166Z,0.2
2018-02-18T02:53:50.528Z,0.2
2018-02-18T02:55:12.864Z,0.2
2018-02-18T02:56:32.719Z,0.2
2018-02-18T02:57:55.141Z,0.2
2018-02-18T02:59:15.001Z,0.3
2018-02-18T03:00:34.829Z,0.2
2018-02-18T03:01:54.631Z,0.2
2018-02-18T03:03:14.469Z,0.2
2018-02-18T03:04:34.319Z,0.1
2018-02-18T03:05:54.199Z,0.1
2018-02-18T03:07:14.017Z,0.2
2018-02-18T03:08:41.458Z,0.2
2018-02-18T03:10:06.333Z,0.1
2018-02-18T03:11:28.718Z,0.1
2018-02-18T03:12:48.573Z,0.2
2018-02-18T03:14:08.396Z,0.2
2018-02-18T03:15:28.221Z,0.1
2018-02-18T03:16:50.603Z,0
2018-02-18T03:18:12.964Z,-0.1
2018-02-18T03:19:32.790Z,-0.1
2018-02-18T03:20:52.696Z,-0.2
2018-02-18T03:22:22.732Z,-0.1
2018-02-18T03:23:42.558Z,-0.1
2018-02-18T03:25:02.378Z,-0.2
2018-02-18T03:26:22.206Z,-0.2
2018-02-18T03:27:49.674Z,-0.1
2018-02-18T03:29:14.621Z,-0.1
2018-02-18T03:30:42.111Z,-0.2
2018-02-18T03:32:01.984Z,-0.2
2018-02-18T03:33:21.802Z,-0.3
2018-02-18T03:34:41.632Z,-0.2
2018-02-18T03:36:11.607Z,-0.2
2018-02-18T03:37:31.473Z,-0.1
2018-02-18T03:38:51.341Z,-0.1
2018-02-18T03:40:11.170Z,-0.1
2018-02-18T03:41:33.538Z,-0.1
2018-02-18T03:42:53.385Z,-0.1
2018-02-18T03:44:20.859Z,-0.1
2018-02-18T03:45:40.687Z,-0.1
2018-02-18T03:47:00.532Z,-0.1
2018-02-18T03:48:20.452Z,0
2018-02-18T03:49:40.314Z,-0.1
2018-02-18T03:51:15.363Z,-0.2
2018-02-18T03:52:37.738Z,-0.3
2018-02-18T03:53:57.579Z,-0.3
2018-02-18T03:55:17.396Z,-0.3
2018-02-18T03:56:37.230Z,-0.3
2018-02-18T03:58:04.674Z,-0.3
2018-02-18T03:59:24.518Z,-0.3
2018-02-18T04:00:54.498Z,-0.3
2018-02-18T04:02:14.378Z,-0.3
2018-02-18T04:03:36.767Z,-0.4
2018-02-18T04:04:56.622Z,-0.4
2018-02-18T04:06:16.493Z,-0.4
2018-02-18T04:07:36.347Z,-0.4
2018-02-18T04:09:06.303Z,-0.3
2018-02-18T04:10:26.151Z,-0.3
2018-02-18T04:11:45.968Z,-0.3
2018-02-18T04:13:08.369Z,-0.3
2018-02-18T04:14:28.221Z,-0.3
2018-02-18T04:15:53.107Z,-0.3
2018-02-18T04:17:23.090Z,-0.2
2018-02-18T04:18:45.494Z,-0.2
2018-02-18T04:20:07.886Z,-0.2
2018-02-18T04:21:30.265Z,-0.2
2018-02-18T04:22:52.608Z,-0.3
2018-02-18T04:24:12.489Z,-0.3
2018-02-18T04:25:39.954Z,-0.3
2018-02-18T04:27:12.461Z,-0.3
2018-02-18T04:28:34.894Z,-0.3
2018-02-18T04:29:54.732Z,-0.2
2018-02-18T04:31:14.548Z,-0.2
2018-02-18T04:32:36.952Z,-0.2
2018-02-18T04:34:04.352Z,-0.2
2018-02-18T04:35:24.213Z,-0.3
2018-02-18T04:36:56.744Z,-0.2
2018-02-18T04:38:16.566Z,-0.2
2018-02-18T04:39:44.028Z,-0.2
2018-02-18T04:41:06.424Z,-0.4
2018-02-18T04:42:26.264Z,-0.4
2018-02-18T04:43:51.147Z,-0.5
2018-02-18T04:45:10.980Z,-0.6
2018-02-18T04:46:33.378Z,-0.7
2018-02-18T04:47:53.206Z,-0.7
2018-02-18T04:49:13.012Z,-0.7
2018-02-18T04:50:40.495Z,-0.7
2018-02-18T04:52:00.373Z,-0.6
2018-02-18T04:53:20.230Z,-0.5
2018-02-18T04:54:40.085Z,-0.5
2018-02-18T04:56:02.493Z,-0.4
2018-02-18T04:57:24.913Z,-0.4
2018-02-18T04:58:49.903Z,-0.3
2018-02-18T05:00:09.812Z,-0.3
2018-02-18T05:01:34.765Z,-0.4
2018-02-18T05:02:54.646Z,-0.5
2018-02-18T05:04:17.024Z,-0.5
2018-02-18T05:05:39.377Z,-0.5
2018-02-18T05:06:59.202Z,-0.6
2018-02-18T05:08:19.011Z,-0.6
2018-02-18T05:09:41.410Z,-0.7
2018-02-18T05:11:01.238Z,-0.6
2018-02-18T05:12:21.110Z,-0.5
2018-02-18T05:13:43.452Z,-0.5
2018-02-18T05:15:05.816Z,-0.5
2018-02-18T05:16:28.214Z,-0.5
2018-02-18T05:17:55.674Z,-0.4
2018-02-18T05:19:18.054Z,-0.3
2018-02-18T05:20:37.929Z,-0.3
2018-02-18T05:22:02.832Z,-0.3
2018-02-18T05:23:22.662Z,-0.3
2018-02-18T05:24:47.593Z,-0.4
2018-02-18T05:26:09.981Z,-0.4
2018-02-18T05:27:29.878Z,-0.4
2018-02-18T05:28:49.727Z,-0.4
2018-02-18T05:30:09.566Z,-0.4
2018-02-18T05:31:29.459Z,-0.4
2018-02-18T05:32:51.827Z,-0.3
2018-02-18T05:34:11.682Z,-0.3
2018-02-18T05:35:31.529Z,-0.4
2018-02-18T05:36:51.359Z,-0.4
2018-02-18T05:38:11.205Z,-0.4
2018-02-18T05:39:33.552Z,-0.4
2018-02-18T05:40:53.389Z,-0.4
2018-02-18T05:42:18.289Z,-0.4
2018-02-18T05:43:40.695Z,-0.4
2018-02-18T05:45:00.542Z,-0.4
2018-02-18T05:46:20.426Z,-0.3
2018-02-18T05:47:42.818Z,-0.4
2018-02-18T05:49:10.247Z,-0.3
2018-02-18T05:50:35.158Z,-0.3
2018-02-18T05:51:55.023Z,-0.3
2018-02-18T05:53:22.460Z,-0.3
2018-02-18T05:54:57.475Z,-0.3
2018-02-18T05:56:27.477Z,-0.3
2018-02-18T05:57:52.417Z,-0.4
2018-02-18T05:59:12.263Z,-0.4
2018-02-18T06:00:32.095Z,-0.5
2018-02-18T06:02:02.080Z,-0.5
2018-02-18T06:03:24.418Z,-0.5
2018-02-18T06:04:44.253Z,-0.6
2018-02-18T06:06:06.615Z,-0.6
2018-02-18T06:07:28.956Z,-0.6
2018-02-18T06:08:48.830Z,-0.6
2018-02-18T06:10:08.645Z,-0.7
2018-02-18T06:11:28.452Z,-0.8
2018-02-18T06:12:48.298Z,-0.9
2018-02-18T06:14:08.151Z,-1
2018-02-18T06:15:27.975Z,-1
2018-02-18T06:16:47.815Z,-1
2018-02-18T06:18:15.266Z,-1
2018-02-18T06:19:40.184Z,-0.9
2018-02-18T06:21:00.028Z,-0.8
2018-02-18T06:22:19.889Z,-0.8
2018-02-18T06:23:54.921Z,-0.7
2018-02-18T06:25:14.562Z,-0.7
2018-02-18T06:26:34.430Z,-0.7
2018-02-18T06:27:54.298Z,-0.7
2018-02-18T06:29:24.241Z,-0.6
2018-02-18T06:30:44.060Z,-0.8
2018-02-18T06:32:06.426Z,-0.8
2018-02-18T06:33:28.844Z,-0.8
2018-02-18T06:34:48.669Z,-0.9
2018-02-18T06:36:18.637Z,-0.9
2018-02-18T06:37:40.989Z,-0.9
2018-02-18T06:39:05.907Z,-0.8
2018-02-18T06:40:28.267Z,-0.7
2018-02-18T06:41:50.654Z,-0.7
2018-02-18T06:43:10.507Z,-0.6
2018-02-18T06:44:30.403Z,-0.6
2018-02-18T06:46:00.379Z,-0.7
2018-02-18T06:47:22.727Z,-0.8
2018-02-18T06:48:42.598Z,-0.8
2018-02-18T06:50:02.428Z,-0.8
2018-02-18T06:51:22.239Z,-0.8
2018-02-18T06:52:42.088Z,-0.8
2018-02-18T06:54:01.939Z,-0.8
2018-02-18T06:55:29.371Z,-0.8
2018-02-18T06:56:49.251Z,-0.7
2018-02-18T06:58:09.116Z,-0.6
2018-02-18T06:59:31.518Z,-0.5
2018-02-18T07:00:53.895Z,-0.3
2018-02-18T07:02:13.722Z,-0.2
2018-02-18T07:03:43.671Z,-0.1
2018-02-18T07:05:03.523Z,0
2018-02-18T07:06:23.314Z,0
2018-02-18T07:07:43.144Z,-0.1
2018-02-18T07:09:05.521Z,-0.2
2018-02-18T07:10:32.982Z,-0.2
2018-02-18T07:11:55.349Z,-0.2
2018-02-18T07:13:15.199Z,-0.1
2018-02-18T07:14:35.026Z,0.1
2018-02-18T07:15:57.347Z,0.2
2018-02-18T07:17:17.139Z,0.2
2018-02-18T07:18:36.964Z,0.3
2018-02-18T07:19:56.820Z,0.3
2018-02-18T07:21:21.680Z,0.5
2018-02-18T07:22:46.550Z,0.6
2018-02-18T07:24:13.997Z,0.7
2018-02-18T07:25:33.792Z,0.8
2018-02-18T07:26:53.599Z,0.8
2018-02-18T07:28:13.440Z,0.8
2018-02-18T07:29:33.244Z,0.9
2018-02-18T07:30:53.076Z,0.9
2018-02-18T07:32:15.479Z,0.9
2018-02-18T07:33:45.486Z,0.8
2018-02-18T07:35:05.352Z,0.7
2018-02-18T07:36:25.189Z,0.8
2018-02-18T07:37:55.154Z,0.8
2018-02-18T07:39:14.990Z,0.9
2018-02-18T07:40:34.829Z,1
2018-02-18T07:41:54.649Z,1.2
2018-02-18T07:43:19.560Z,1.4
2018-02-18T07:44:44.511Z,1.5
2018-02-18T07:46:04.384Z,1.6
2018-02-18T07:47:26.721Z,1.7
2018-02-18T07:48:54.126Z,1.8
2018-02-18T07:50:24.078Z,2
2018-02-18T07:51:46.441Z,2.2
2018-02-18T07:53:18.920Z,2.1
2018-02-18T07:54:38.725Z,1.9
2018-02-18T07:55:58.533Z,1.8
2018-02-18T07:57:18.351Z,1.6
2018-02-18T07:58:40.699Z,1.5
2018-02-18T08:00:03.038Z,1.3
2018-02-18T08:01:22.877Z,1.1
2018-02-18T08:02:47.749Z,1.1
2018-02-18T08:04:10.123Z,1
2018-02-18T08:05:32.502Z,0.9
2018-02-18T08:06:59.981Z,0.7
2018-02-18T08:08:19.843Z,0.6
2018-02-18T08:09:44.725Z,0.5
2018-02-18T08:11:04.577Z,0.6
2018-02-18T08:12:26.980Z,0.6
2018-02-18T08:13:49.340Z,0.5
2018-02-18T08:15:09.140Z,0.6
2018-02-18T08:16:39.158Z,0.6
2018-02-18T08:17:59.025Z,0.6
2018-02-18T08:19:23.895Z,0.7
2018-02-18T08:20:46.218Z,0.9
2018-02-18T08:22:06.012Z,1.1
2018-02-18T08:23:25.828Z,1.4
2018-02-18T08:24:53.230Z,1.8
2018-02-18T08:26:18.099Z,2.1
2018-02-18T08:27:42.981Z,2.3
2018-02-18T08:29:02.828Z,2.4
2018-02-18T08:30:27.746Z,2.6
2018-02-18T08:31:47.596Z,2.9
2018-02-18T08:33:07.397Z,3
2018-02-18T08:34:34.813Z,3.2
2018-02-18T08:35:54.607Z,3.3
2018-02-18T08:37:19.508Z,3.6
2018-02-18T08:38:44.407Z,3.6
2018-02-18T08:40:06.743Z,3.6
2018-02-18T08:41:29.139Z,3.3
2018-02-18T08:42:54.048Z,3.3
2018-02-18T08:44:16.374Z,3.2
2018-02-18T08:45:38.715Z,2.9
2018-02-18T08:47:11.202Z,2.5
2018-02-18T08:48:31.063Z,2.3
2018-02-18T08:49:58.462Z,1.8
2018-02-18T08:51:18.318Z,1.7
2018-02-18T08:52:45.747Z,1.6
2018-02-18T08:54:05.588Z,1.5
2018-02-18T08:55:25.455Z,1.5
2018-02-18T08:56:45.334Z,1.6
2018-02-18T08:58:05.176Z,1.7
2018-02-18T08:59:25.022Z,1.8
2018-02-18T09:00:47.353Z,1.9
2018-02-18T09:02:07.211Z,2.1
2018-02-18T09:03:27.002Z,2.3
2018-02-18T09:04:51.854Z,2.5
2018-02-18T09:06:11.724Z,2.8
2018-02-18T09:07:31.527Z,3
2018-02-18T09:08:51.356Z,3.2
2018-02-18T09:10:11.223Z,3.3
2018-02-18T09:11:33.565Z,3.5
2018-02-18T09:12:53.431Z,3.5
2018-02-18T09:14:15.792Z,3.5
2018-02-18T09:15:38.159Z,3.3
2018-02-18T09:16:58.014Z,3.2
2018-02-18T09:18:17.852Z,2.9
2018-02-18T09:19:42.728Z,2.7
2018-02-18T09:21:02.519Z,2.5
2018-02-18T09:22:24.876Z,2.5
2018-02-18T09:23:44.770Z,2.7
2018-02-18T09:25:12.169Z,2.7
2018-02-18T09:26:42.089Z,2.9
2018-02-18T09:28:01.960Z,3.1
2018-02-18T09:29:21.760Z,3.3
2018-02-18T09:30:41.616Z,3.6
2018-02-18T09:32:03.981Z,3.9
2018-02-18T09:33:26.327Z,4.1
2018-02-18T09:34:48.716Z,4.2
2018-02-18T09:36:08.523Z,4.6
2018-02-18T09:37:28.318Z,4.9
2018-02-18T09:38:48.140Z,5
2018-02-18T09:40:07.949Z,5.1
2018-02-18T09:41:27.782Z,5.3
2018-02-18T09:42:47.620Z,5.2
2018-02-18T09:44:15.037Z,5.2
2018-02-18T09:45:39.984Z,5.2
2018-02-18T09:46:59.813Z,5.4
2018-02-18T09:48:19.638Z,5.4
2018-02-18T09:49:44.524Z,5.5
2018-02-18T09:51:12.006Z,5.7
2018-02-18T09:52:39.407Z,5.7
2018-02-18T09:54:04.294Z,5.6
2018-02-18T09:55:26.669Z,5.4
2018-02-18T09:56:49.013Z,5.6
2018-02-18T09:58:08.811Z,5.5
2018-02-18T09:59:28.626Z,5.5
2018-02-18T10:00:50.962Z,5.4
2018-02-18T10:02:13.276Z,5.4
2018-02-18T10:03:35.680Z,5.5
2018-02-18T10:05:00.563Z,5.5
2018-02-18T10:06:30.562Z,5.1
2018-02-18T10:07:50.432Z,4.9
2018-02-18T10:09:12.772Z,4.7
2018-02-18T10:10:32.574Z,4.5
2018-02-18T10:11:54.951Z,4.4
2018-02-18T10:13:14.797Z,4.5
2018-02-18T10:14:37.125Z,4.5
2018-02-18T10:16:02.031Z,4.5
2018-02-18T10:17:21.836Z,4.5
2018-02-18T10:18:41.635Z,4.6
2018-02-18T10:20:01.482Z,4.7
2018-02-18T10:21:28.920Z,4.8
2018-02-18T10:22:48.718Z,4.7
2018-02-18T10:24:08.522Z,4.7
2018-02-18T10:25:28.353Z,4.8
2018-02-18T10:26:50.713Z,4.9
2018-02-18T10:28:30.787Z,5.1
2018-02-18T10:29:58.227Z,5.2
2018-02-18T10:31:18.031Z,5.3
2018-02-18T10:32:37.825Z,5.2
2018-02-18T10:33:57.686Z,5.2
2018-02-18T10:35:37.760Z,5.1
2018-02-18T10:36:57.547Z,5.1
2018-02-18T10:38:19.924Z,5.2
2018-02-18T10:39:39.747Z,5.2
2018-02-18T10:40:59.609Z,5.5
2018-02-18T10:42:19.447Z,5.8
2018-02-18T10:43:41.775Z,5.9
2018-02-18T10:45:19.335Z,5.9
2018-02-18T10:46:39.120Z,6
2018-02-18T10:47:58.940Z,6.2
2018-02-18T10:49:18.804Z,6.2
2018-02-18T10:50:38.635Z,6.2
2018-02-18T10:51:58.462Z,6.1
2018-02-18T10:53:23.321Z,6
2018-02-18T10:54:45.674Z,5.9
2018-02-18T10:56:08.012Z,5.8
2018-02-18T10:57:30.412Z,5.6
2018-02-18T10:58:55.299Z,5.4
2018-02-18T11:00:17.635Z,5.4
2018-02-18T11:01:37.429Z,5.2
2018-02-18T11:02:59.789Z,5.2
2018-02-18T11:04:19.638Z,5.1
2018-02-18T11:05:39.457Z,5.1
2018-02-18T11:07:04.343Z,4.9
2018-02-18T11:08:24.144Z,4.8
2018-02-18T11:09:43.949Z,4.7
2018-02-18T11:11:06.315Z,4.6
2018-02-18T11:12:33.722Z,4.7
2018-02-18T11:13:53.578Z,4.8
2018-02-18T11:15:13.406Z,4.8
2018-02-18T11:16:40.797Z,4.7
2018-02-18T11:18:05.675Z,4.6
2018-02-18T11:19:30.565Z,4.6
2018-02-18T11:20:57.957Z,4.6
2018-02-18T11:22:17.761Z,4.6
2018-02-18T11:23:37.600Z,4.5
2018-02-18T11:24:57.412Z,4.4
2018-02-18T11:26:22.296Z,4.7
2018-02-18T11:27:42.143Z,4.7
2018-02-18T11:29:07.018Z,4.9
2018-02-18T11:30:31.907Z,5.1
2018-02-18T11:31:54.250Z,5.2
2018-02-18T11:33:14.109Z,5.2
2018-02-18T11:34:33.919Z,5.2
2018-02-18T11:35:56.270Z,5.4
2018-02-18T11:37:16.173Z,5.3
2018-02-18T11:39:01.302Z,5.5
2018-02-18T11:40:31.247Z,5.8
2018-02-18T11:41:53.587Z,5.8
2018-02-18T11:43:15.980Z,6
2018-02-18T11:44:35.768Z,6
2018-02-18T11:45:55.638Z,6
2018-02-18T11:47:25.598Z,6.1
2018-02-18T11:48:52.999Z,6.2
2018-02-18T11:50:12.836Z,6.3
2018-02-18T11:51:35.191Z,6.6
2018-02-18T11:52:55.065Z,6.8
2018-02-18T11:54:19.991Z,6.8
2018-02-18T11:55:52.482Z,7
2018-02-18T11:57:12.339Z,7
2018-02-18T11:58:34.719Z,7.2
2018-02-18T11:59:59.614Z,7.3
2018-02-18T12:01:24.540Z,7.3
2018-02-18T12:03:04.665Z,7.4
2018-02-18T12:04:32.104Z,7.5
2018-02-18T12:05:51.903Z,7.7
2018-02-18T12:07:11.708Z,7.8
2018-02-18T12:08:34.043Z,8.1
2018-02-18T12:09:53.865Z,8.2
2018-02-18T12:11:21.256Z,8.1
2018-02-18T12:12:41.102Z,7.9
2018-02-18T12:14:00.904Z,7.6
2018-02-18T12:15:23.238Z,7.3
2018-02-18T12:16:48.129Z,7.6
2018-02-18T12:18:07.933Z,7.5
2018-02-18T12:19:27.783Z,7.4
2018-02-18T12:20:47.578Z,7.6
2018-02-18T12:22:15.062Z,7.9
2018-02-18T12:23:34.928Z,8.2
2018-02-18T12:24:54.752Z,8.2
2018-02-18T12:26:14.555Z,8
2018-02-18T12:27:36.957Z,8.1
2018-02-18T12:28:56.760Z,8
2018-02-18T12:30:19.143Z,8.1
2018-02-18T12:31:41.460Z,8.1
2018-02-18T12:33:01.338Z,8.1
2018-02-18T12:34:21.163Z,8.2
2018-02-18T12:35:43.514Z,8
2018-02-18T12:37:03.334Z,8
2018-02-18T12:38:23.135Z,7.8
2018-02-18T12:39:50.579Z,7.6
2018-02-18T12:41:15.487Z,7.6
2018-02-18T12:42:35.357Z,7.6
2018-02-18T12:43:55.176Z,7.7
2018-02-18T12:45:25.131Z,7.8
2018-02-18T12:46:44.952Z,7.7
2018-02-18T12:48:07.331Z,7.7
2018-02-18T12:49:37.279Z,7.6
2018-02-18T12:51:02.146Z,7.7
2018-02-18T12:52:21.957Z,7.6
2018-02-18T12:53:41.828Z,7.6
2018-02-18T12:55:01.627Z,7.6
2018-02-18T12:56:31.542Z,7.6
2018-02-18T12:57:51.375Z,7.7
2018-02-18T12:59:16.290Z,7.9
2018-02-18T13:00:36.125Z,9.6
2018-02-18T13:01:55.961Z,11
2018-02-18T13:03:15.784Z,10.6
2018-02-18T13:04:35.670Z,11
2018-02-18T13:05:55.565Z,11.5
2018-02-18T13:07:15.421Z,11.4
2018-02-18T13:08:35.255Z,10.4
2018-02-18T13:09:57.610Z,9.6
2018-02-18T13:11:19.983Z,9.5
2018-02-18T13:12:39.829Z,12.3
2018-02-18T13:13:59.674Z,14.8
2018-02-18T13:15:19.577Z,13.5
2018-02-18T13:16:39.482Z,11.9
2018-02-18T13:17:59.348Z,11.2
2018-02-18T13:19:21.708Z,10.2
2018-02-18T13:20:41.539Z,9.5
2018-02-18T13:22:01.371Z,8.9
2018-02-18T13:23:28.759Z,8.6
2018-02-18T13:24:48.569Z,9.9
2018-02-18T13:26:10.934Z,13
2018-02-18T13:27:48.492Z,14.5
2018-02-18T13:29:08.327Z,18.8
2018-02-18T13:30:28.198Z,16
2018-02-18T13:31:48.026Z,16.5
2018-02-18T13:33:07.879Z,18
2018-02-18T13:34:30.263Z,17
2018-02-18T13:35:57.694Z,16.9
2018-02-18T13:37:22.568Z,19.7
2018-02-18T13:38:42.379Z,18.9
2018-02-18T13:40:02.206Z,21.4
2018-02-18T13:41:22.045Z,18.6
2018-02-18T13:42:44.413Z,15.3
2018-02-18T13:44:09.314Z,13.8
2018-02-18T13:45:29.154Z,14
2018-02-18T13:46:48.997Z,13.4
2018-02-18T13:48:11.356Z,12.1
2018-02-18T13:49:31.195Z,11.1
2018-02-18T13:50:51.034Z,11.2
2018-02-18T13:52:10.900Z,12.1
2018-02-18T13:53:30.739Z,13
2018-02-18T13:54:50.590Z,16.1
2018-02-18T13:56:10.445Z,17.6
2018-02-18T13:57:40.434Z,19.6
2018-02-18T13:59:05.366Z,17.1
2018-02-18T14:00:32.795Z,14.1
2018-02-18T14:01:55.233Z,12.1
2018-02-18T14:03:17.577Z,11.6
2018-02-18T14:04:40.004Z,10.8
2018-02-18T14:05:59.902Z,10.4
2018-02-18T14:07:29.888Z,10.3
2018-02-18T14:08:49.711Z,10
2018-02-18T14:10:12.055Z,9.7
2018-02-18T14:11:44.500Z,9.4
2018-02-18T14:13:04.380Z,9.2
2018-02-18T14:14:26.710Z,9
2018-02-18T14:15:46.505Z,8.6
2018-02-18T14:17:11.397Z,8.5
2018-02-18T14:18:46.391Z,8.3
2018-02-18T14:20:11.234Z,7.8
2018-02-18T14:21:31.033Z,7.9
2018-02-18T14:22:53.353Z,7.6
2018-02-18T14:24:15.700Z,7.4
2018-02-18T14:25:35.540Z,7.1
2018-02-18T14:26:55.377Z,7
2018-02-18T14:28:20.256Z,6.9
2018-02-18T14:29:47.671Z,6.8
2018-02-18T14:31:07.473Z,6.9
2018-02-18T14:32:27.337Z,6.8
2018-02-18T14:33:57.252Z,6.7
2018-02-18T14:35:17.061Z,6.6
2018-02-18T14:36:36.865Z,6.7
2018-02-18T14:37:56.673Z,6.7
2018-02-18T14:39:21.596Z,6.7
2018-02-18T14:40:41.387Z,6.5
2018-02-18T14:42:06.246Z,6.8
2018-02-18T14:43:26.057Z,6.9
2018-02-18T14:44:48.439Z,6.7
2018-02-18T14:46:10.781Z,6.6
2018-02-18T14:47:30.626Z,6.4
2018-02-18T14:48:50.462Z,6.3
2018-02-18T14:50:10.344Z,6.3
2018-02-18T14:51:35.279Z,6.2
2018-02-18T14:52:55.108Z,6.1
2018-02-18T14:54:20.052Z,6.1
2018-02-18T14:55:39.962Z,5.9
2018-02-18T14:57:02.372Z,5.6
2018-02-18T14:58:22.178Z,5.5
2018-02-18T14:59:47.054Z,5.4
2018-02-18T15:01:06.872Z,5.3
2018-02-18T15:02:29.269Z,5.2
2018-02-18T15:03:54.185Z,5.3
2018-02-18T15:05:19.035Z,5.2
2018-02-18T15:06:41.378Z,5.1
2018-02-18T15:08:01.179Z,4.9
2018-02-18T15:09:31.104Z,5
2018-02-18T15:10:50.907Z,4.9
2018-02-18T15:12:20.853Z,4.8
2018-02-18T15:13:45.722Z,4.8
2018-02-18T15:15:05.568Z,4.8
2018-02-18T15:16:25.424Z,4.8
2018-02-18T15:17:47.795Z,4.8
2018-02-18T15:19:07.619Z,4.8
2018-02-18T15:20:32.516Z,4.6
2018-02-18T15:21:52.362Z,4.4
2018-02-18T15:23:12.168Z,4.4
2018-02-18T15:24:34.566Z,4.4
2018-02-18T15:25:54.455Z,4.4
2018-02-18T15:27:19.353Z,4.4
2018-02-18T15:28:41.728Z,4.4
2018-02-18T15:30:01.527Z,4.4
2018-02-18T15:31:23.925Z,4.4
2018-02-18T15:32:43.771Z,4.2
2018-02-18T15:34:16.241Z,4
2018-02-18T15:35:36.078Z,3.8
2018-02-18T15:36:55.940Z,3.6
2018-02-18T15:38:15.744Z,3.5
2018-02-18T15:39:40.635Z,3.4
2018-02-18T15:41:03.014Z,3.4
2018-02-18T15:42:22.861Z,3.4
2018-02-18T15:43:42.675Z,3.3
2018-02-18T15:45:07.594Z,3.1
2018-02-18T15:46:27.411Z,3.1
2018-02-18T15:47:47.207Z,3
2018-02-18T15:49:09.591Z,2.9
2018-02-18T15:50:29.487Z,2.9
2018-02-18T15:51:51.857Z,3
2018-02-18T15:53:16.707Z,3.1
2018-02-18T15:54:39.048Z,3.1
2018-02-18T15:56:03.987Z,3
2018-02-18T15:57:28.860Z,3
2018-02-18T15:58:48.697Z,2.8
2018-02-18T16:00:11.048Z,2.6
2018-02-18T16:01:30.896Z,2.4
2018-02-18T16:02:50.739Z,2.3
2018-02-18T16:04:13.058Z,2.2
2018-02-18T16:05:32.868Z,2.2
2018-02-18T16:07:05.395Z,2.1
2018-02-18T16:08:30.289Z,2.1
2018-02-18T16:09:50.190Z,2
2018-02-18T16:11:10.036Z,1.9
2018-02-18T16:12:29.932Z,1.8
2018-02-18T16:13:49.772Z,1.8
2018-02-18T16:15:09.630Z,1.9
2018-02-18T16:16:29.472Z,2
2018-02-18T16:17:59.458Z,2
2018-02-18T16:19:26.865Z,1.8
2018-02-18T16:20:46.651Z,1.8
2018-02-18T16:22:06.509Z,1.8
2018-02-18T16:23:36.473Z,1.7
2018-02-18T16:24:56.320Z,1.6
2018-02-18T16:26:21.195Z,1.5
2018-02-18T16:27:46.048Z,1.5
2018-02-18T16:29:05.901Z,1.4
2018-02-18T16:30:25.714Z,1.2
2018-02-18T16:31:45.557Z,1.1
2018-02-18T16:33:12.995Z,0.9
2018-02-18T16:34:32.842Z,0.7
2018-02-18T16:36:02.787Z,0.5
2018-02-18T16:37:27.654Z,0.3
2018-02-18T16:38:47.521Z,0.2
2018-02-18T16:40:07.347Z,0.2
2018-02-18T16:41:29.690Z,0.3
2018-02-18T16:42:52.041Z,0.3
2018-02-18T16:44:11.856Z,0.2
2018-02-18T16:45:31.669Z,0.2
2018-02-18T16:46:51.482Z,0
2018-02-18T16:48:11.351Z,0
2018-02-18T16:49:31.227Z,-0.1
2018-02-18T16:50:53.629Z,-0.3
2018-02-18T16:52:13.496Z,-0.3
2018-02-18T16:53:33.378Z,-0.4
2018-02-18T16:54:58.242Z,-0.5
2018-02-18T16:56:18.047Z,-0.6
2018-02-18T16:57:37.881Z,-0.6
2018-02-18T16:58:57.754Z,-0.7
2018-02-18T17:00:17.564Z,-0.8
2018-02-18T17:01:37.416Z,-0.8
2018-02-18T17:02:57.266Z,-0.8
2018-02-18T17:04:17.080Z,-0.9
2018-02-18T17:05:36.918Z,-0.9
2018-02-18T17:07:01.841Z,-1
2018-02-18T17:08:36.867Z,-1
2018-02-18T17:09:56.696Z,-1
2018-02-18T17:11:16.532Z,-1.1
2018-02-18T17:12:41.467Z,-1.1
2018-02-18T17:14:13.988Z,-1.2
2018-02-18T17:15:33.824Z,-1.3
2018-02-18T17:16:58.710Z,-1.3
2018-02-18T17:18:21.115Z,-1.3
2018-02-18T17:19:40.932Z,-1.2
2018-02-18T17:21:00.757Z,-1.2
2018-02-18T17:22:23.092Z,-1.3
2018-02-18T17:23:42.899Z,-1.3
2018-02-18T17:25:05.307Z,-1.2
2018-02-18T17:26:42.848Z,-1.2
2018-02-18T17:28:02.732Z,-1.2
2018-02-18T17:29:22.545Z,-1.3
2018-02-18T17:30:42.385Z,-1.4
2018-02-18T17:32:09.831Z,-1.6
2018-02-18T17:33:29.663Z,-1.7
2018-02-18T17:34:57.118Z,-1.7
2018-02-18T17:36:16.938Z,-1.7
2018-02-18T17:37:36.750Z,-1.8
2018-02-18T17:39:01.681Z,-1.8
2018-02-18T17:40:21.499Z,-1.8
2018-02-18T17:41:46.412Z,-1.8
2018-02-18T17:43:11.286Z,-1.9
2018-02-18T17:44:31.098Z,-1.9
2018-02-18T17:45:50.944Z,-1.9
2018-02-18T17:47:18.347Z,-2
2018-02-18T17:48:40.738Z,-2
2018-02-18T17:50:05.670Z,-2
2018-02-18T17:51:28.066Z,-2
2018-02-18T17:52:47.888Z,-2.1
2018-02-18T17:54:15.391Z,-2.1
2018-02-18T17:55:35.239Z,-2.1
2018-02-18T17:56:55.112Z,-2.1
2018-02-18T17:58:17.463Z,-2.2
2018-02-18T17:59:42.354Z,-2.2
2018-02-18T18:01:04.774Z,-2.2
2018-02-18T18:02:24.602Z,-2.2
2018-02-18T18:03:44.475Z,-2.2
2018-02-18T18:05:14.464Z,-2.3
2018-02-18T18:06:39.386Z,-2.2
2018-02-18T18:07:59.210Z,-2.2
2018-02-18T18:09:19.038Z,-2.2
2018-02-18T18:10:46.457Z,-2.3
2018-02-18T18:12:08.800Z,-2.3
2018-02-18T18:13:28.671Z,-2.3
2018-02-18T18:14:56.146Z,-2.3
2018-02-18T18:16:16.025Z,-2.2
2018-02-18T18:17:40.908Z,-2.2
2018-02-18T18:19:03.264Z,-2.2
2018-02-18T18:20:23.081Z,-2.2
2018-02-18T18:21:45.477Z,-2.3
2018-02-18T18:23:05.385Z,-2.4
2018-02-18T18:24:25.235Z,-2.4
2018-02-18T18:25:45.090Z,-2.5
2018-02-18T18:27:04.957Z,-2.6
2018-02-18T18:28:24.811Z,-2.6
2018-02-18T18:29:54.777Z,-2.5
2018-02-18T18:31:14.671Z,-2.5
2018-02-18T18:32:34.496Z,-2.5
2018-02-18T18:34:04.484Z,-2.5
2018-02-18T18:35:24.332Z,-2.5
2018-02-18T18:36:46.709Z,-2.5
2018-02-18T18:38:06.535Z,-2.6
2018-02-18T18:39:26.363Z,-2.6
2018-02-18T18:40:48.787Z,-2.7
2018-02-18T18:42:16.198Z,-2.7
2018-02-18T18:43:36.058Z,-2.7
2018-02-18T18:44:55.919Z,-2.8
2018-02-18T18:46:18.315Z,-2.8